Crothersville, Indiana
Current Conditions -  °F | °C
As of 5:12 PM on Wednesday 28 Jan 2015 (Local Time) from KIMS Reporting Station
Clear Clear  
Wind Chill: 32°   Ceiling: Unl
Heat Index: 36°   Visibility: 10mi
Dew Point: 14°   Wind: 5mph
Humidity: 41%   Direction: 150°SSE
Pressure: 30.24"   Gusts: NA
Location:  38.8°N, 85.84°W
Report Text: KIMS 282212Z AUTO 15004KT 10SM CLR 02/M10 A3024 RMK AO1
Loading
Personal Weather Stations






























Interactive Weather Map New forecast layout! Learn more

10-Day Weather Forecast

Advertisements
Track Severe Weather on mobile